Strona główna
METAR-TAF:

METAR-TAF

Lotnisko :

Nowy Jork, Nowy Jork, Stany Zjednoczone

Szerokość geograficzna: 40-42-04N, Długość geograficzna: 074-00-32W, wysokość: 2 m

Aktualna obserwacja pogody

Raport powstał 1 godzina i 10 minut temu, godzina 09:56 UTC
Wiatr 11 kt od północny wschód
Temperatura 4°C
Wilgotność 65%
Ciśnienie 1027 hPa
Widzialność: 16.1 km
Rozproszone chmury na wysokości 12000 ft

METAR: KJRB 180956Z AUTO 04011KT 10SM SCT120 04/M02 A3034 RMK AO2 SLP274 T00391022

czas: 06:06 (11:06 UTC)


TAF: brakujący

Obserwacja i prognoza pogody dla ponad 4000 lotnisk (raport METAR i TAF).

Dostępne stacje oznaczono żółtymi i czerwonymi punktami na mapie.

Najedź kursorem aby zobaczyć nazwę stacji.

Kliknij aby zobaczyć obserwacje i prognozy pogody.

Aby zmienić mapę: kliknij na zielony przycisk z czarnym krzyżykiem, aby powiększyć; na zielony przycisk z myślnikiem, aby pomniejszyć; na zielone strzałki, aby przejść do map sąsiednich.


METAR-TAF: